Ottawa Gatineau, Quebec

12:32 PM EDT on October 31, 2014 (GMT -0400)
Ottawa / Gatineau | Change Station
CLOSE
Current Station
Airport
Location: Ottawa Gatineau,
Elevation: 210 ft
Nearby Weather Stations

Elev 210 ft 45.52 °N, 75.56 °W | Updated 32 minutes ago

Mostly Cloudy
Mostly Cloudy
41 °F
Feels Like 35 °F
N
10
Wind Variable Wind from ENE

Today is forecast to be nearly the same temperature as yesterday.

Today
High -- | Low -- °F
--% Chance of Precip.
Yesterday
High -- | Low -- °F
Precip. -- in
7:40 AM 5:50 PM
First Quarter, 56% visible
Pressure 30.09 in
Visibility 15.0 miles
Clouds Few 2500 ft
Scattered Clouds 14000 ft
Mostly Cloudy 23000 ft
Windchill 35 °F
Dew Point 27 °F
Humidity 57%
Rainfall 0.00 in
Snow Depth Not available.
UV 2 out of 12
Pollen Not available.
Air Quality Not available.
Flu Activity Not available.
METAR CYND 311600Z 07009KT 15SM FEW025 SCT140 BKN230 05/M03 A3008 RMK CU1AC2CI4 SLP189

More Conditions Fewer Conditions

Pressure 30.09 in
Visibility 15.0 miles
Clouds Few 2500 ft
Scattered Clouds 14000 ft
Mostly Cloudy 23000 ft
Windchill 35 °F
Dew Point 27 °F
Humidity 57%
Rainfall 0.00 in
Snow Depth Not available.
UV 2 out of 12
Pollen Not available.
Air Quality Not available.
Flu Activity Not available.
METAR CYND 311600Z 07009KT 15SM FEW025 SCT140 BKN230 05/M03 A3008 RMK CU1AC2CI4 SLP189

More Conditions Fewer Conditions

Nowcast |

Smiths Falls - Perth - Eastern Lanark County

×

10-Day Weather Forecast

Almanac

Astronomy

Oct. 31, 2014 Rise Set
Actual Time
Civil Twilight
Nautical Twilight
Astronomical Twilight
Moon
Length of Visible Light
Length of Day
Tomorrow will be .
, % of the Moon is Illuminated

Today's Extremes

Country Highs Country Lows

Community

WunderPhotos

Upload Photos

1,766,656 photos uploaded!

WunderBlogs® & News

Nearby

Air Quality

  Air Quality AQ Index Pollutant
Not available.

Snow Depth

Station Depth Elevation

Earthquake Activity

City Distance Mag. Time & Date
Minimum magnitude displayed is 2.5.

Coastal Water Temperatures

Place Temperature

Nearby Weather Stations